Time;durP1;ratioP1;P1;durP2;ratioP2;P2;SDS_P1;SDS_P2;PMS_P1;PMS_P2;Temp;Humidity;BMP_temperature;BMP_pressure;BME280_temperature;BME280_humidity;BME280_pressure;Samples;Min_cycle;Max_cycle;Signal;HPM_P1;HPM_P2
2022/08/09 00:00:07;;;;;;;1999.90;999.90;;;14.80;96.00;;;;;;4916825;28;20047;-73
2022/08/09 00:02:33;;;;;;;1999.90;999.90;;;14.70;96.20;;;;;;4929217;29;20032;-73
2022/08/09 00:04:59;;;;;;;1999.90;999.90;;;14.70;96.40;;;;;;4930430;29;20087;-73
2022/08/09 00:07:25;;;;;;;1999.90;999.90;;;14.70;96.80;;;;;;4913591;29;20015;-73
2022/08/09 00:09:51;;;;;;;1999.90;999.90;;;14.60;96.40;;;;;;4914085;29;20082;-73
2022/08/09 00:12:16;;;;;;;1999.90;999.90;;;14.60;96.90;;;;;;4927694;29;20491;-73
2022/08/09 00:14:42;;;;;;;1999.90;999.90;;;14.60;96.40;;;;;;4929764;29;20071;-73
2022/08/09 00:17:08;;;;;;;1999.90;999.90;;;14.60;97.20;;;;;;4944918;28;20036;-72
2022/08/09 00:19:34;;;;;;;1999.90;999.90;;;14.50;97.60;;;;;;4928879;29;20034;-73
2022/08/09 00:22:00;;;;;;;1999.90;999.90;;;14.50;97.90;;;;;;4929152;29;20031;-73
2022/08/09 00:24:26;;;;;;;1999.90;999.90;;;14.70;96.20;;;;;;4913230;29;20050;-73
2022/08/09 00:26:51;;;;;;;1999.90;999.90;;;14.60;96.90;;;;;;4912762;29;20036;-73
2022/08/09 00:29:17;;;;;;;1999.90;999.90;;;14.60;96.50;;;;;;4913079;29;20036;-72
2022/08/09 00:31:43;;;;;;;1999.90;999.90;;;14.60;95.90;;;;;;4925249;29;20043;-73
2022/08/09 00:34:09;;;;;;;1999.90;999.90;;;14.60;96.70;;;;;;4931441;29;20065;-72
2022/08/09 00:36:35;;;;;;;1999.90;999.90;;;14.40;96.40;;;;;;4948933;28;20553;-73
2022/08/09 00:39:00;;;;;;;1999.90;999.90;;;14.50;96.80;;;;;;4949454;29;20042;-72
2022/08/09 00:41:26;;;;;;;1999.90;999.90;;;14.50;96.50;;;;;;4931655;29;20035;-73
2022/08/09 00:43:52;;;;;;;1999.90;999.90;;;14.40;96.50;;;;;;4949322;29;20027;-72
2022/08/09 00:46:18;;;;;;;1999.90;999.90;;;14.50;96.30;;;;;;4947685;29;20035;-73
2022/08/09 00:48:44;;;;;;;1999.90;999.90;;;14.40;96.30;;;;;;4931738;29;20090;-73
2022/08/09 00:51:10;;;;;;;1999.90;999.90;;;14.40;96.60;;;;;;4950004;28;20515;-73
2022/08/09 00:53:37;;;;;;;1999.90;999.90;;;14.40;96.70;;;;;;4949113;29;20035;-74
2022/08/09 00:56:04;;;;;;;1999.90;999.90;;;14.40;96.50;;;;;;4932918;29;20035;-73
2022/08/09 00:58:30;;;;;;;1999.90;999.90;;;14.40;96.50;;;;;;4949656;29;20039;-72
2022/08/09 01:00:56;;;;;;;1999.90;999.90;;;14.30;97.00;;;;;;4932466;29;20043;-72
2022/08/09 01:03:38;;;;;;;1999.90;999.90;;;14.30;96.70;;;;;;4933029;29;20070;-72
2022/08/09 01:06:08;;;;;;;1999.90;999.90;;;14.30;96.10;;;;;;4947952;29;20078;-72
2022/08/09 01:08:47;;;;;;;1999.90;999.90;;;14.20;96.70;;;;;;4949178;29;20062;-72
2022/08/09 01:11:45;;;;;;;1999.90;999.90;;;14.30;96.60;;;;;;4960118;28;20061;-73
2022/08/09 01:14:22;;;;;;;1999.90;999.90;;;14.30;96.60;;;;;;4943627;29;20134;-72
2022/08/09 01:16:51;;;;;;;1999.90;999.90;;;14.30;96.60;;;;;;4947457;29;20164;-71
2022/08/09 01:19:41;;;;;;;1999.90;999.90;;;14.30;97.20;;;;;;4948213;29;20227;-71
2022/08/09 01:22:12;;;;;;;1999.90;999.90;;;14.20;97.20;;;;;;4927407;29;20604;-72
2022/08/09 01:24:59;;;;;;;1999.90;999.90;;;14.20;97.70;;;;;;4946526;29;20113;-72
2022/08/09 01:27:26;;;;;;;1999.90;999.90;;;14.10;97.30;;;;;;4946814;29;20020;-72
2022/08/09 01:30:00;;;;;;;1999.90;999.90;;;14.10;97.90;;;;;;4947595;28;20398;-72
2022/08/09 01:32:30;;;;;;;1999.90;999.90;;;14.10;97.40;;;;;;4941965;29;20452;-73
2022/08/09 01:35:01;;;;;;;1999.90;999.90;;;14.00;97.60;;;;;;4944576;29;20058;-72
2022/08/09 01:37:27;;;;;;;1999.90;999.90;;;14.10;97.70;;;;;;4931569;29;20039;-72
2022/08/09 01:39:55;;;;;;;1999.90;999.90;;;14.00;97.80;;;;;;4945157;29;20066;-72
2022/08/09 01:42:22;;;;;;;1999.90;999.90;;;14.00;97.70;;;;;;4930350;29;20039;-72
2022/08/09 01:44:49;;;;;;;1999.90;999.90;;;14.00;98.10;;;;;;4931191;29;20466;-72
2022/08/09 01:47:15;;;;;;;1999.90;999.90;;;14.00;98.10;;;;;;4931734;29;20466;-71
2022/08/09 01:49:43;;;;;;;1999.90;999.90;;;13.90;98.20;;;;;;4947674;29;20110;-72
2022/08/09 01:52:13;;;;;;;1999.90;999.90;;;13.90;98.50;;;;;;4957433;28;20057;-72
2022/08/09 01:54:51;;;;;;;1999.90;999.90;;;13.90;99.10;;;;;;4948048;29;20058;-72
2022/08/09 01:57:22;;;;;;;1999.90;999.90;;;13.90;99.10;;;;;;4932128;29;20090;-72
2022/08/09 01:59:52;;;;;;;1999.90;999.90;;;13.90;98.80;;;;;;4961623;28;20130;-71
2022/08/09 02:02:22;;;;;;;1999.90;999.90;;;13.90;99.20;;;;;;4959512;28;20752;-72
2022/08/09 02:04:49;;;;;;;1999.90;999.90;;;13.80;99.40;;;;;;4948530;29;20526;-72
2022/08/09 02:07:19;;;;;;;1999.90;999.90;;;13.80;99.40;;;;;;4947369;28;20039;-72
2022/08/09 02:09:53;;;;;;;1999.90;999.90;;;13.90;99.40;;;;;;4899053;29;20035;-72
2022/08/09 02:12:21;;;;;;;1999.90;999.90;;;13.80;99.20;;;;;;4945474;29;20110;-71
2022/08/09 02:14:50;;;;;;;1999.90;999.90;;;13.80;99.20;;;;;;4931228;29;20035;-72
2022/08/09 02:17:18;;;;;;;1999.90;999.90;;;13.80;99.80;;;;;;4931209;29;20046;-72
2022/08/09 02:19:44;;;;;;;1999.90;999.90;;;13.90;99.50;;;;;;4929852;29;20130;-71
2022/08/09 02:22:19;;;;;;;1999.90;999.90;;;13.90;99.70;;;;;;4931188;29;20032;-72
2022/08/09 02:24:49;;;;;;;1999.90;999.90;;;13.80;99.90;;;;;;4931465;29;20130;-72
2022/08/09 02:27:17;;;;;;;1999.90;999.90;;;13.80;99.80;;;;;;4947982;29;20091;-72
2022/08/09 02:29:50;;;;;;;1999.90;999.90;;;13.80;99.90;;;;;;4947727;29;20077;-71
2022/08/09 02:32:21;;;;;;;1999.90;999.90;;;13.80;99.90;;;;;;4947355;28;20130;-72
2022/08/09 02:34:53;;;;;;;1999.90;999.90;;;13.80;99.90;;;;;;4921213;28;20052;-72
2022/08/09 02:37:24;;;;;;;1999.90;999.90;;;13.70;99.90;;;;;;4915478;29;20032;-72
2022/08/09 02:40:02;;;;;;;1999.90;999.90;;;13.70;99.90;;;;;;4927734;29;20046;-72
2022/08/09 02:42:35;;;;;;;1999.90;999.90;;;13.60;99.90;;;;;;4928974;29;20024;-72
2022/08/09 02:45:06;;;;;;;1999.90;999.90;;;13.60;99.90;;;;;;4931855;29;20654;-72
2022/08/09 02:47:33;;;;;;;1999.90;999.90;;;13.50;99.90;;;;;;4931224;29;20035;-72
2022/08/09 02:50:06;;;;;;;1999.90;999.90;;;13.50;99.90;;;;;;4930720;29;20061;-72
2022/08/09 02:52:50;;;;;;;1999.90;999.90;;;13.50;99.90;;;;;;4931796;29;20478;-72
2022/08/09 02:55:16;;;;;;;1999.90;999.90;;;13.40;99.90;;;;;;4930870;29;20031;-73
2022/08/09 02:57:43;;;;;;;1999.90;999.90;;;13.40;99.90;;;;;;4927461;29;20111;-72
2022/08/09 03:00:10;;;;;;;1999.90;999.90;;;13.40;99.90;;;;;;4914866;29;20040;-72
2022/08/09 03:02:45;;;;;;;1999.90;999.90;;;13.40;99.90;;;;;;4914102;29;20043;-72
2022/08/09 03:05:11;;;;;;;1999.90;999.90;;;13.40;99.90;;;;;;4898874;29;20044;-73
2022/08/09 03:07:39;;;;;;;1999.90;999.90;;;13.40;99.90;;;;;;4898724;29;20458;-72
2022/08/09 03:10:06;;;;;;;1999.90;999.90;;;13.30;99.90;;;;;;4930136;29;20385;-71
2022/08/09 03:12:34;;;;;;;1999.90;999.90;;;13.20;99.90;;;;;;4931664;29;20032;-72
2022/08/09 03:15:01;;;;;;;1999.90;999.90;;;13.30;99.90;;;;;;4931355;29;20058;-72
2022/08/09 03:17:28;;;;;;;1999.90;999.90;;;13.30;99.90;;;;;;4930677;29;20171;-72
2022/08/09 03:19:59;;;;;;;1999.90;999.90;;;13.30;99.90;;;;;;4931233;29;20084;-72
2022/08/09 03:22:28;;;;;;;1999.90;999.90;;;13.20;99.90;;;;;;4930539;29;20024;-72
2022/08/09 03:24:54;;;;;;;1999.90;999.90;;;13.20;99.90;;;;;;4925465;29;20031;-72
2022/08/09 03:27:20;;;;;;;1999.90;999.90;;;13.10;99.90;;;;;;4930402;29;20558;-71
2022/08/09 03:29:46;;;;;;;1999.90;999.90;;;13.20;99.90;;;;;;4913928;29;20126;-71
2022/08/09 03:32:13;;;;;;;1999.90;999.90;;;13.30;99.90;;;;;;4930612;29;20468;-72
2022/08/09 03:34:38;;;;;;;1999.90;999.90;;;13.20;99.90;;;;;;4942326;29;20458;-72
2022/08/09 03:37:05;;;;;;;1999.90;999.90;;;13.10;99.90;;;;;;4932762;29;20067;-72
2022/08/09 03:39:30;;;;;;;1999.90;999.90;;;13.00;99.90;;;;;;4947687;29;20054;-71
2022/08/09 03:41:56;;;;;;;730.15;662.28;;;13.00;99.90;;;;;;4930188;29;20035;-72
2022/08/09 03:44:23;;;;;;;1999.90;999.90;;;13.10;99.90;;;;;;4932603;28;20563;-71
2022/08/09 03:46:49;;;;;;;1999.90;999.90;;;13.10;99.90;;;;;;4948780;29;20019;-71
2022/08/09 03:49:16;;;;;;;1999.90;999.90;;;13.00;99.90;;;;;;4932730;29;20037;-72
2022/08/09 03:51:44;;;;;;;1999.90;999.90;;;13.00;99.90;;;;;;4946914;28;20043;-72
2022/08/09 03:54:12;;;;;;;1999.90;999.90;;;12.90;99.90;;;;;;4932463;29;20113;-72
2022/08/09 03:56:43;;;;;;;1999.90;999.90;;;12.90;99.90;;;;;;4950084;29;20020;-72
2022/08/09 03:59:10;;;;;;;1999.90;999.90;;;12.90;99.90;;;;;;4931365;29;20035;-72
2022/08/09 04:01:37;;;;;;;1999.90;999.90;;;12.90;99.90;;;;;;4929340;29;20055;-72
2022/08/09 04:04:05;;;;;;;1999.90;999.90;;;12.90;99.90;;;;;;4948278;29;20031;-72
2022/08/09 04:06:31;;;;;;;1999.90;999.90;;;12.90;99.90;;;;;;4931662;29;20070;-72
2022/08/09 04:08:56;;;;;;;1999.90;999.90;;;12.90;99.90;;;;;;4928617;29;20478;-71
2022/08/09 04:11:22;;;;;;;1999.90;999.90;;;12.90;99.90;;;;;;4932471;29;20123;-71
2022/08/09 04:13:48;;;;;;;1999.90;999.90;;;12.90;99.90;;;;;;4935121;29;20035;-72
2022/08/09 04:16:13;;;;;;;1999.90;999.90;;;12.90;99.90;;;;;;4932270;29;20043;-71
2022/08/09 04:18:40;;;;;;;1999.90;999.90;;;12.80;99.90;;;;;;4949389;29;20035;-71
2022/08/09 04:21:08;;;;;;;1999.90;999.90;;;12.70;99.90;;;;;;4931842;29;20035;-72
2022/08/09 04:23:33;;;;;;;1999.90;999.90;;;12.70;99.90;;;;;;4946918;29;20553;-72
2022/08/09 04:25:59;;;;;;;1999.90;999.90;;;12.70;99.90;;;;;;4931464;29;20027;-71
2022/08/09 04:28:25;;;;;;;1999.90;999.90;;;12.70;99.90;;;;;;4948947;29;20035;-72
2022/08/09 04:30:51;;;;;;;1999.90;999.90;;;12.70;99.90;;;;;;4931902;29;20600;-72
2022/08/09 04:33:16;;;;;;;1999.90;999.90;;;12.70;99.90;;;;;;4950019;28;20075;-72
2022/08/09 04:35:42;;;;;;;1999.90;999.90;;;12.70;99.90;;;;;;4949877;29;20027;-71
2022/08/09 04:38:08;;;;;;;1999.90;999.90;;;12.70;99.90;;;;;;4946965;29;20027;-71
2022/08/09 04:40:49;;;;;;;1999.90;999.90;;;12.70;99.90;;;;;;4933104;29;20722;-71
2022/08/09 04:43:15;;;;;;;;;;;12.70;99.90;;;;;;4950876;29;20078;-72
2022/08/09 04:45:41;;;;;;;1999.90;999.90;;;12.80;99.90;;;;;;4949715;29;19918;-72
2022/08/09 04:48:06;;;;;;;1999.90;999.90;;;12.90;99.90;;;;;;4948707;29;20537;-72
2022/08/09 04:50:32;;;;;;;1999.90;999.90;;;12.90;99.90;;;;;;4930342;29;20031;-72
2022/08/09 04:52:58;;;;;;;1999.90;999.90;;;12.90;99.90;;;;;;4931891;29;20109;-72
2022/08/09 04:55:24;;;;;;;1999.90;999.90;;;13.00;99.90;;;;;;4931668;29;20179;-72
2022/08/09 04:57:49;;;;;;;1999.90;999.90;;;13.00;99.90;;;;;;4948697;29;20566;-72
2022/08/09 05:00:15;;;;;;;1999.90;999.90;;;13.10;99.90;;;;;;4929749;28;20046;-72
2022/08/09 05:02:43;;;;;;;1999.90;999.90;;;13.10;99.90;;;;;;4948808;29;20206;-72
2022/08/09 05:05:09;;;;;;;1999.90;999.90;;;13.20;99.90;;;;;;4947890;28;20483;-72
2022/08/09 05:07:34;;;;;;;1999.90;999.90;;;13.20;99.90;;;;;;4944909;29;20439;-73
2022/08/09 05:10:00;;;;;;;1999.90;999.90;;;13.30;99.90;;;;;;4931405;29;20035;-72
2022/08/09 05:12:26;;;;;;;1999.90;999.90;;;13.30;99.90;;;;;;4945296;28;20533;-72
2022/08/09 05:14:51;;;;;;;1999.90;999.90;;;13.40;99.90;;;;;;4942211;28;20087;-72
2022/08/09 05:17:17;;;;;;;1999.90;999.90;;;13.50;99.90;;;;;;4950451;28;20035;-72
2022/08/09 05:19:42;;;;;;;1999.90;999.90;;;13.50;99.90;;;;;;4938380;28;20683;-72
2022/08/09 05:22:11;;;;;;;1999.90;999.90;;;13.60;99.90;;;;;;4935991;28;20043;-72
2022/08/09 05:24:37;;;;;;;1999.90;999.90;;;13.70;99.90;;;;;;4954291;28;20073;-72
2022/08/09 05:27:02;;;;;;;1999.90;999.90;;;13.80;99.90;;;;;;4950359;28;20043;-71
2022/08/09 05:29:28;;;;;;;1999.90;999.90;;;14.00;99.90;;;;;;4939423;28;20487;-72
2022/08/09 05:31:58;;;;;;;1999.90;999.90;;;14.10;99.90;;;;;;4934174;28;20039;-77
2022/08/09 05:34:29;;;;;;;1999.90;999.90;;;14.10;99.90;;;;;;4924987;29;20039;-80
2022/08/09 05:36:57;;;;;;;1999.90;999.90;;;14.20;99.90;;;;;;4929674;28;20040;-80
2022/08/09 05:39:23;;;;;;;1999.90;999.90;;;14.20;99.90;;;;;;4951909;28;20022;-80
2022/08/09 05:41:50;;;;;;;1999.90;999.90;;;14.40;99.90;;;;;;4932287;28;20512;-79
2022/08/09 05:44:16;;;;;;;1999.90;999.90;;;14.40;99.90;;;;;;4944668;28;20101;-79
2022/08/09 05:46:42;;;;;;;1999.90;999.90;;;14.40;99.60;;;;;;4930141;28;20029;-82
2022/08/09 05:49:08;;;;;;;1999.90;999.90;;;14.50;99.90;;;;;;4945659;28;20027;-82
2022/08/09 05:51:33;;;;;;;1999.90;999.90;;;14.60;99.40;;;;;;4935468;28;20046;-80
2022/08/09 05:53:59;;;;;;;1999.90;999.90;;;14.60;98.60;;;;;;4952418;28;20690;-80
2022/08/09 05:56:26;;;;;;;1999.90;999.90;;;14.70;97.70;;;;;;4937546;28;20035;-80
2022/08/09 05:58:56;;;;;;;1999.90;999.90;;;14.70;98.10;;;;;;4931551;28;20031;-82
2022/08/09 06:01:23;;;;;;;1999.90;999.90;;;14.70;98.40;;;;;;4948438;28;20055;-80
2022/08/09 06:03:49;;;;;;;1999.90;999.90;;;14.80;98.30;;;;;;4932254;29;20035;-80
2022/08/09 06:06:15;;;;;;;1999.90;999.90;;;14.80;97.90;;;;;;4931576;29;20046;-79
2022/08/09 06:08:41;;;;;;;1999.90;999.90;;;14.90;97.80;;;;;;4948833;29;20114;-80
2022/08/09 06:11:07;;;;;;;1999.90;999.90;;;14.90;97.90;;;;;;4948070;28;20062;-82
2022/08/09 06:13:33;;;;;;;1999.90;999.90;;;14.90;98.50;;;;;;4930632;29;20587;-81
2022/08/09 06:15:59;;;;;;;1999.90;999.90;;;15.00;97.90;;;;;;4925797;29;20031;-81
2022/08/09 06:18:24;;;;;;;1999.90;999.90;;;15.00;97.80;;;;;;4944025;29;20019;-81
2022/08/09 06:20:51;;;;;;;1999.90;999.90;;;15.00;98.10;;;;;;4946921;29;20470;-81
2022/08/09 06:23:16;;;;;;;1999.90;999.90;;;15.10;98.10;;;;;;4947099;28;20070;-80
2022/08/09 06:26:00;;;;;;;1999.90;999.90;;;15.20;97.00;;;;;;5042313;23;20069;-78
2022/08/09 06:28:26;;;;;;;1999.90;999.90;;;15.30;97.10;;;;;;4964485;28;20046;-80
2022/08/09 06:30:52;;;;;;;1999.90;999.90;;;15.50;98.30;;;;;;4973621;28;20046;-81
2022/08/09 06:35:54;;;;;;;1999.90;999.90;;;15.70;97.70;;;;;;4925044;29;20067;-83
2022/08/09 06:38:20;;;;;;;1999.90;999.90;;;15.80;96.20;;;;;;4928889;29;20549;-81
2022/08/09 06:40:45;;;;;;;1999.90;999.90;;;15.90;96.80;;;;;;4913653;29;20044;-81
2022/08/09 06:43:12;;;;;;;1999.90;999.90;;;16.00;96.00;;;;;;4910599;29;20746;-81
2022/08/09 06:45:38;;;;;;;1999.90;999.90;;;16.10;96.40;;;;;;4942375;23;20030;-88
2022/08/09 06:48:04;;;;;;;1999.90;999.90;;;16.30;95.60;;;;;;4943950;28;20458;-89
2022/08/09 06:50:29;;;;;;;1999.90;999.90;;;16.30;96.90;;;;;;4951088;29;20729;-89
2022/08/09 06:52:55;;;;;;;1999.90;999.90;;;16.40;94.70;;;;;;4940736;29;20371;-90
2022/08/09 06:55:23;;;;;;;1999.90;999.90;;;16.50;94.40;;;;;;4955021;29;20110;-89
2022/08/09 06:57:48;;;;;;;1999.90;999.90;;;16.50;94.70;;;;;;4952157;28;20122;-90
2022/08/09 07:00:15;;;;;;;1999.90;999.90;;;16.60;94.20;;;;;;4951974;28;20074;-90
2022/08/09 07:02:40;;;;;;;1999.90;999.90;;;16.80;94.50;;;;;;4932096;29;20055;-87
2022/08/09 07:05:06;;;;;;;1999.90;999.90;;;16.90;94.70;;;;;;4935437;29;20063;-88
2022/08/09 07:07:32;;;;;;;1999.90;999.90;;;17.00;93.70;;;;;;4930016;29;20028;-88
2022/08/09 07:09:58;;;;;;;1999.90;999.90;;;17.10;93.50;;;;;;4933036;29;20036;-89
2022/08/09 07:12:24;;;;;;;1999.90;999.90;;;17.20;93.90;;;;;;4912532;29;20119;-88
2022/08/09 07:14:49;;;;;;;1999.90;999.90;;;17.30;93.80;;;;;;4932759;29;20035;-88
2022/08/09 07:17:15;;;;;;;1999.90;999.90;;;17.40;92.90;;;;;;4933408;29;20067;-88
2022/08/09 07:19:41;;;;;;;1999.90;999.90;;;17.50;92.40;;;;;;4933685;29;20039;-87
2022/08/09 07:22:07;;;;;;;1999.90;999.90;;;17.60;92.50;;;;;;4931230;29;20444;-88
2022/08/09 07:24:33;;;;;;;1999.90;999.90;;;17.80;91.60;;;;;;4933858;29;20032;-87
2022/08/09 07:27:00;;;;;;;1999.90;999.90;;;18.00;90.80;;;;;;4928904;29;20106;-87
2022/08/09 07:29:27;;;;;;;1999.90;999.90;;;18.10;90.50;;;;;;4938588;29;20374;-88
2022/08/09 07:31:53;;;;;;;1122.38;995.65;;;18.30;90.20;;;;;;4932073;29;20038;-88
2022/08/09 07:34:19;;;;;;;1999.90;999.90;;;18.40;87.40;;;;;;4932871;29;20499;-87
2022/08/09 07:36:45;;;;;;;1999.90;999.90;;;18.50;89.90;;;;;;4935737;29;20035;-87
2022/08/09 07:39:11;;;;;;;1999.90;999.90;;;18.60;87.70;;;;;;4937245;29;20360;-87
2022/08/09 07:41:36;;;;;;;1999.90;999.90;;;18.80;87.10;;;;;;4937387;29;20032;-89
2022/08/09 07:44:02;;;;;;;1999.90;999.90;;;19.00;89.30;;;;;;4930675;29;20435;-87
2022/08/09 07:46:28;;;;;;;1999.90;999.90;;;19.00;84.70;;;;;;4936795;29;20051;-89
2022/08/09 07:48:54;;;;;;;1999.90;999.90;;;19.10;83.00;;;;;;4937379;29;20066;-88
2022/08/09 07:51:21;;;;;;;1999.90;999.90;;;19.20;84.30;;;;;;4932013;29;20032;-90
2022/08/09 07:53:48;;;;;;;1999.90;999.90;;;19.40;83.30;;;;;;4929152;29;20031;-88
2022/08/09 07:56:14;;;;;;;1248.32;904.08;;;19.50;80.00;;;;;;4934783;29;20048;-87
2022/08/09 07:58:40;;;;;;;1999.90;999.90;;;19.50;78.20;;;;;;4936149;29;20031;-88
2022/08/09 08:01:05;;;;;;;1014.60;899.72;;;19.50;78.50;;;;;;4936308;29;20051;-89
2022/08/09 08:03:31;;;;;;;1202.38;964.97;;;19.70;76.20;;;;;;4927630;29;20050;-89
2022/08/09 08:05:57;;;;;;;1185.43;993.30;;;19.80;75.80;;;;;;4920008;29;20036;-88
2022/08/09 08:08:23;;;;;;;1026.65;931.83;;;19.90;74.80;;;;;;4934469;29;20035;-89
2022/08/09 08:10:49;;;;;;;1142.78;999.90;;;20.10;72.20;;;;;;4935380;29;20497;-87
2022/08/09 08:13:15;;;;;;;1297.03;902.85;;;20.30;72.70;;;;;;4937401;29;20031;-87
2022/08/09 08:15:41;;;;;;;1287.32;999.90;;;20.40;70.90;;;;;;4927915;29;20020;-86
2022/08/09 08:18:06;;;;;;;1537.93;969.83;;;20.50;72.40;;;;;;4941740;29;20040;-86
2022/08/09 08:20:32;;;;;;;971.80;878.60;;;20.70;75.40;;;;;;4932440;29;20122;-82
2022/08/09 08:23:03;;;;;;;1229.88;992.95;;;20.80;68.60;;;;;;4927016;29;20475;-86
2022/08/09 08:25:29;;;;;;;1210.97;999.90;;;20.70;68.90;;;;;;4927550;29;20044;-85
2022/08/09 08:27:54;;;;;;;1335.95;999.90;;;20.90;69.20;;;;;;4934671;29;20028;-85
2022/08/09 08:30:20;;;;;;;1204.68;983.15;;;21.20;71.50;;;;;;4934300;29;20066;-85
2022/08/09 08:32:46;;;;;;;1999.90;999.90;;;21.40;67.20;;;;;;4933054;29;20064;-83
2022/08/09 08:35:11;;;;;;;1687.60;932.75;;;21.40;70.80;;;;;;4929216;29;20042;-83
2022/08/09 08:37:37;;;;;;;1236.22;999.90;;;21.60;66.30;;;;;;4932038;29;20036;-84
2022/08/09 08:40:04;;;;;;;1713.25;912.63;;;21.80;66.60;;;;;;4934162;29;20095;-86
2022/08/09 08:42:30;;;;;;;1111.15;982.45;;;21.80;65.00;;;;;;4933124;29;20036;-83
2022/08/09 08:44:58;;;;;;;1096.90;990.10;;;21.80;65.60;;;;;;4929147;29;20036;-83
2022/08/09 08:47:25;;;;;;;1169.20;926.17;;;22.00;62.50;;;;;;4935057;29;20075;-82
2022/08/09 08:49:53;;;;;;;1064.13;963.00;;;22.00;62.60;;;;;;4934129;29;20036;-82
2022/08/09 08:52:21;;;;;;;833.50;772.45;;;22.00;60.70;;;;;;4931226;29;20063;-83
2022/08/09 08:54:47;;;;;;;1037.80;940.67;;;22.10;59.30;;;;;;4948137;23;20044;-77
2022/08/09 08:57:13;;;;;;;1166.78;945.92;;;22.30;61.80;;;;;;4932436;29;20031;-80
2022/08/09 08:59:39;;;;;;;1093.53;983.03;;;22.50;60.90;;;;;;4929688;29;20058;-83
2022/08/09 09:02:07;;;;;;;1126.10;957.75;;;22.70;61.80;;;;;;4947768;28;20043;-78
2022/08/09 09:04:34;;;;;;;1034.40;924.42;;;22.60;57.40;;;;;;4949743;28;20034;-87
2022/08/09 09:07:07;;;;;;;964.55;892.88;;;22.80;58.10;;;;;;4949568;28;20069;-85
2022/08/09 09:09:35;;;;;;;927.17;859.97;;;23.00;55.20;;;;;;4965974;28;20034;-77
2022/08/09 09:12:01;;;;;;;1053.72;952.72;;;23.20;51.80;;;;;;4959271;28;20030;-76
2022/08/09 09:14:29;;;;;;;968.25;783.15;;;23.00;49.30;;;;;;4965596;28;20042;-79
2022/08/09 09:16:55;;;;;;;973.78;893.10;;;23.00;49.80;;;;;;4949767;28;20038;-77
2022/08/09 09:19:21;;;;;;;709.25;663.88;;;22.90;52.40;;;;;;4949135;28;20030;-76
2022/08/09 09:21:57;;;;;;;941.95;859.65;;;23.10;47.20;;;;;;4968085;28;20042;-77
2022/08/09 09:24:34;;;;;;;663.30;619.67;;;23.20;49.30;;;;;;4967791;28;20027;-81
2022/08/09 09:27:01;;;;;;;904.95;830.60;;;23.40;50.20;;;;;;4966910;28;20118;-78
2022/08/09 09:29:39;;;;;;;828.75;769.03;;;23.70;48.20;;;;;;4952703;28;20125;-78
2022/08/09 09:32:05;;;;;;;910.25;834.85;;;23.70;47.70;;;;;;4947712;28;20517;-79
2022/08/09 09:34:31;;;;;;;724.92;680.92;;;23.60;47.50;;;;;;4965224;28;20145;-77
2022/08/09 09:36:59;;;;;;;802.25;742.17;;;23.80;45.50;;;;;;4948233;29;20114;-79
2022/08/09 09:39:27;;;;;;;704.25;657.03;;;23.90;46.70;;;;;;4949025;28;20033;-80
2022/08/09 09:41:54;;;;;;;735.22;687.08;;;24.20;45.50;;;;;;4968373;28;20045;-79
2022/08/09 09:44:27;;;;;;;775.70;721.60;;;24.00;45.10;;;;;;4968558;28;20078;-89
2022/08/09 09:47:15;;;;;;;467.58;434.33;;;24.00;45.70;;;;;;4967488;28;20094;-90
2022/08/09 09:49:49;;;;;;;773.10;713.97;;;24.10;43.10;;;;;;4963914;28;20058;-90
2022/08/09 09:52:14;;;;;;;607.53;575.22;;;24.10;47.30;;;;;;4947842;28;20053;-78
2022/08/09 09:54:42;;;;;;;607.53;575.10;;;24.30;42.90;;;;;;4960759;28;20494;-83
2022/08/09 09:57:26;;;;;;;755.88;706.78;;;24.50;42.70;;;;;;4966219;28;20034;-83
2022/08/09 09:59:53;;;;;;;822.55;765.55;;;24.40;43.10;;;;;;4946276;28;20042;-79
2022/08/09 10:02:20;;;;;;;617.03;580.83;;;24.70;44.10;;;;;;4968324;28;20023;-79
2022/08/09 10:05:06;;;;;;;602.22;566.30;;;24.80;41.00;;;;;;4965178;28;20031;-78
2022/08/09 10:07:32;;;;;;;643.55;602.58;;;24.70;40.50;;;;;;4963504;28;20023;-80
2022/08/09 10:10:00;;;;;;;836.42;776.20;;;24.80;44.20;;;;;;4956875;28;20062;-86
2022/08/09 10:12:33;;;;;;;677.00;607.22;;;24.80;42.80;;;;;;4959542;28;20105;-81
2022/08/09 10:15:17;;;;;;;755.95;695.83;;;25.00;40.00;;;;;;4966905;28;20033;-81
2022/08/09 10:17:45;;;;;;;734.03;687.80;;;25.50;40.90;;;;;;4965488;28;20062;-82
2022/08/09 10:20:20;;;;;;;738.00;696.03;;;25.30;41.70;;;;;;4964376;28;20485;-81
2022/08/09 10:22:59;;;;;;;605.15;572.97;;;25.00;37.30;;;;;;4958216;28;20018;-83
2022/08/09 10:25:25;;;;;;;587.72;556.03;;;25.10;36.30;;;;;;4951707;28;20076;-82
2022/08/09 10:27:52;;;;;;;695.40;654.35;;;25.10;37.40;;;;;;4960007;28;20034;-81
2022/08/09 10:30:18;;;;;;;547.05;519.40;;;25.30;38.10;;;;;;4967486;28;20434;-80
2022/08/09 10:32:44;;;;;;;671.00;633.35;;;25.70;35.50;;;;;;4950264;28;20511;-87
2022/08/09 10:35:10;;;;;;;642.55;598.67;;;25.60;38.30;;;;;;4964239;28;20389;-82
2022/08/09 10:37:36;;;;;;;610.00;575.25;;;25.50;36.40;;;;;;4964331;28;20416;-81
2022/08/09 10:40:04;;;;;;;751.45;683.50;;;25.60;36.70;;;;;;4966737;28;20050;-80
2022/08/09 10:42:30;;;;;;;498.60;473.88;;;25.40;35.00;;;;;;4960452;28;20157;-78
2022/08/09 10:45:04;;;;;;;627.30;591.88;;;25.40;34.40;;;;;;4932359;28;20488;-82
2022/08/09 10:47:38;;;;;;;383.45;365.05;;;25.50;37.10;;;;;;4960395;28;20069;-83
2022/08/09 10:50:13;;;;;;;662.05;623.78;;;25.70;34.90;;;;;;4946417;28;20034;-81
2022/08/09 10:53:07;;;;;;;616.88;579.72;;;25.30;36.10;;;;;;4963251;28;20024;-82
2022/08/09 10:55:33;;;;;;;597.42;565.05;;;25.60;34.10;;;;;;4963954;28;20149;-85
2022/08/09 10:57:59;;;;;;;548.45;504.77;;;26.20;35.50;;;;;;4944183;28;20757;-77
2022/08/09 11:00:28;;;;;;;315.77;301.10;;;26.40;33.10;;;;;;4955268;28;20594;-79
2022/08/09 11:02:55;;;;;;;328.17;312.45;;;26.60;31.90;;;;;;4962778;28;20177;-79
2022/08/09 11:05:22;;;;;;;366.55;348.88;;;26.80;31.40;;;;;;4968206;28;20113;-80
2022/08/09 11:07:49;;;;;;;508.73;478.58;;;26.50;32.40;;;;;;4969363;28;20042;-80
2022/08/09 11:10:36;;;;;;;381.48;363.67;;;26.60;32.50;;;;;;4966116;28;20030;-81
2022/08/09 11:13:18;;;;;;;409.48;390.58;;;27.30;31.50;;;;;;4933168;28;20421;-79
2022/08/09 11:15:44;;;;;;;442.13;422.25;;;28.30;30.20;;;;;;4967377;28;20082;-80
2022/08/09 11:18:30;;;;;;;402.90;383.88;;;28.50;30.70;;;;;;4945535;28;20239;-80
2022/08/09 11:20:56;;;;;;;400.50;381.92;;;28.40;28.00;;;;;;4936352;28;20046;-80
2022/08/09 11:23:23;;;;;;;301.15;286.88;;;27.70;29.40;;;;;;4951372;28;20034;-80
2022/08/09 11:25:49;;;;;;;444.48;422.88;;;28.20;29.00;;;;;;4952421;28;20134;-81
2022/08/09 11:28:36;;;;;;;534.17;505.33;;;28.70;29.40;;;;;;4950175;28;20438;-80
2022/08/09 11:31:23;;;;;;;463.60;439.80;;;28.80;29.10;;;;;;4949531;28;20046;-80
2022/08/09 11:33:51;;;;;;;493.75;468.73;;;28.50;29.90;;;;;;4949920;28;20023;-79
2022/08/09 11:36:20;;;;;;;380.80;362.55;;;28.70;28.70;;;;;;4935499;28;20027;-80
2022/08/09 11:39:00;;;;;;;325.55;311.05;;;28.40;27.70;;;;;;4948750;28;20161;-79
2022/08/09 11:41:28;;;;;;;648.97;612.45;;;28.20;28.20;;;;;;4949477;28;20138;-81
2022/08/09 11:43:54;;;;;;;572.22;541.92;;;28.70;31.10;;;;;;4947518;28;20430;-77
2022/08/09 11:46:21;;;;;;;575.20;544.70;;;29.20;30.70;;;;;;4950121;28;20486;-77
2022/08/09 11:48:51;;;;;;;595.42;561.33;;;29.30;28.70;;;;;;4967614;28;20022;-78
2022/08/09 11:51:18;;;;;;;;;;;28.90;29.10;;;;;;4950557;28;20494;-78
2022/08/09 11:53:44;;;;;;;517.75;492.20;;;29.50;28.70;;;;;;4964712;28;20146;-78
2022/08/09 11:56:17;;;;;;;461.58;440.92;;;29.40;29.50;;;;;;4945560;28;20058;-80
2022/08/09 11:58:52;;;;;;;500.85;477.33;;;29.30;27.30;;;;;;4959141;28;20030;-80
2022/08/09 12:01:29;;;;;;;506.88;483.20;;;29.70;27.30;;;;;;4965122;28;20093;-83
2022/08/09 12:04:00;;;;;;;487.55;465.05;;;29.30;27.90;;;;;;4964807;28;20094;-79
2022/08/09 12:06:27;;;;;;;529.95;504.98;;;29.60;26.40;;;;;;4968176;28;20026;-80
2022/08/09 12:08:55;;;;;;;576.88;549.50;;;29.90;29.20;;;;;;4965641;28;20414;-82